createdAt,value
2023-03-30T00:01:17.432Z,5.43
2023-03-30T00:03:46.501Z,5.40
2023-03-30T00:06:21.908Z,5.97
2023-03-30T00:08:53.657Z,5.53
2023-03-30T00:11:23.581Z,5.63
2023-03-30T00:13:51.618Z,5.88
2023-03-30T00:16:19.956Z,5.05
2023-03-30T00:18:47.548Z,5.72
2023-03-30T00:21:18.262Z,5.18
2023-03-30T00:23:48.991Z,5.90
2023-03-30T00:26:16.968Z,6.25
2023-03-30T00:28:44.448Z,6.35
2023-03-30T00:31:11.879Z,6.53
2023-03-30T00:33:46.267Z,7.30
2023-03-30T00:36:14.246Z,6.25
2023-03-30T00:38:41.646Z,5.90
2023-03-30T00:41:09.499Z,7.10
2023-03-30T00:43:59.581Z,8.00
2023-03-30T00:46:27.241Z,7.28
2023-03-30T00:48:58.079Z,6.63
2023-03-30T00:51:27.769Z,6.85
2023-03-30T00:54:01.751Z,5.55
2023-03-30T00:56:31.426Z,6.80
2023-03-30T00:59:00.699Z,6.43
2023-03-30T01:01:29.420Z,6.55
2023-03-30T01:04:05.859Z,7.57
2023-03-30T01:06:35.478Z,6.55
2023-03-30T01:09:03.057Z,6.65
2023-03-30T01:11:30.464Z,6.13
2023-03-30T01:14:02.146Z,7.43
2023-03-30T01:16:50.507Z,6.40
2023-03-30T01:19:37.001Z,6.38
2023-03-30T01:22:28.576Z,5.53
2023-03-30T01:25:23.348Z,7.15
2023-03-30T01:28:26.362Z,6.32
2023-03-30T01:31:14.776Z,7.25
2023-03-30T01:34:00.770Z,6.80
2023-03-30T01:36:34.266Z,6.85
2023-03-30T01:39:20.361Z,6.35
2023-03-30T01:42:06.006Z,6.93
2023-03-30T01:44:50.208Z,6.97
2023-03-30T01:47:22.736Z,5.55
2023-03-30T01:50:11.837Z,7.75
2023-03-30T01:52:50.434Z,5.50
2023-03-30T01:55:34.987Z,8.05
2023-03-30T01:58:17.725Z,6.82
2023-03-30T02:00:50.515Z,6.82
2023-03-30T02:03:23.416Z,6.70
2023-03-30T02:05:53.566Z,7.93
2023-03-30T02:08:25.151Z,7.72
2023-03-30T02:10:55.097Z,7.05
2023-03-30T02:13:23.652Z,6.78
2023-03-30T02:15:56.345Z,7.97
2023-03-30T02:18:24.031Z,7.72
2023-03-30T02:20:51.550Z,8.07
2023-03-30T02:23:22.602Z,6.88
2023-03-30T02:25:49.961Z,7.85
2023-03-30T02:28:18.288Z,7.07
2023-03-30T02:30:47.478Z,6.25
2023-03-30T02:33:42.166Z,7.25
2023-03-30T02:36:17.988Z,6.43
2023-03-30T02:38:52.044Z,5.93
2023-03-30T02:41:40.388Z,5.55
2023-03-30T02:44:37.848Z,6.07
2023-03-30T02:49:55.973Z,5.93
2023-03-30T02:55:22.542Z,4.97
2023-03-30T02:58:18.927Z,5.80
2023-03-30T03:01:08.663Z,4.43
2023-03-30T03:03:45.774Z,4.95
2023-03-30T03:06:14.827Z,4.80
2023-03-30T03:08:47.939Z,5.50
2023-03-30T03:11:15.835Z,4.82
2023-03-30T03:13:43.425Z,6.45
2023-03-30T03:16:12.390Z,6.40
2023-03-30T03:18:41.846Z,6.32
2023-03-30T03:21:11.223Z,6.40
2023-03-30T03:23:38.818Z,5.50
2023-03-30T03:26:07.688Z,6.75
2023-03-30T03:28:36.582Z,7.78
2023-03-30T03:31:04.163Z,7.63
2023-03-30T03:33:32.087Z,5.95
2023-03-30T03:36:00.650Z,6.68
2023-03-30T03:38:28.898Z,6.93
2023-03-30T03:40:58.360Z,6.32
2023-03-30T03:43:26.240Z,6.03
2023-03-30T03:45:53.717Z,6.85
2023-03-30T03:48:24.147Z,6.85
2023-03-30T03:50:57.285Z,5.78
2023-03-30T03:53:27.680Z,5.38
2023-03-30T03:55:55.642Z,4.85
2023-03-30T03:58:23.741Z,5.70
2023-03-30T04:00:53.081Z,5.03
2023-03-30T04:03:20.737Z,4.85
2023-03-30T04:05:48.180Z,5.70
2023-03-30T04:08:18.319Z,5.10
2023-03-30T04:10:46.723Z,4.07
2023-03-30T04:13:14.275Z,4.68
2023-03-30T04:15:41.818Z,5.63
2023-03-30T04:18:09.302Z,3.88
2023-03-30T04:20:36.650Z,4.60
2023-03-30T04:23:03.966Z,4.53
2023-03-30T04:25:31.375Z,4.90
2023-03-30T04:27:58.924Z,5.25
2023-03-30T04:30:30.666Z,4.40
2023-03-30T04:33:04.740Z,5.10
2023-03-30T04:35:33.476Z,5.30
2023-03-30T04:38:02.623Z,5.25
2023-03-30T04:40:30.904Z,4.93
2023-03-30T04:43:02.806Z,4.65
2023-03-30T04:45:31.589Z,5.20
2023-03-30T04:47:59.224Z,5.60
2023-03-30T04:50:27.161Z,4.40
2023-03-30T04:52:55.999Z,5.15
2023-03-30T04:55:24.128Z,4.68
2023-03-30T04:57:51.626Z,5.65
2023-03-30T05:00:21.191Z,5.35
2023-03-30T05:02:48.977Z,5.28
2023-03-30T05:05:17.633Z,4.88
2023-03-30T05:07:45.123Z,4.75
2023-03-30T05:10:13.001Z,6.22
2023-03-30T05:12:40.536Z,5.55
2023-03-30T05:15:08.667Z,5.63
2023-03-30T05:17:38.722Z,5.20
2023-03-30T05:20:10.313Z,5.85
2023-03-30T05:22:37.710Z,5.97
2023-03-30T05:25:05.429Z,5.72
2023-03-30T05:27:32.943Z,6.07
2023-03-30T05:30:00.607Z,6.68
2023-03-30T05:32:28.305Z,8.00
2023-03-30T05:34:57.218Z,6.70
2023-03-30T05:37:24.659Z,6.65
2023-03-30T05:39:52.036Z,7.35
2023-03-30T05:42:19.431Z,5.95
2023-03-30T05:44:46.741Z,7.50
2023-03-30T05:47:14.244Z,7.05
2023-03-30T05:49:41.752Z,6.03
2023-03-30T05:52:09.143Z,5.75
2023-03-30T05:54:36.678Z,6.13
2023-03-30T05:57:04.397Z,8.50
2023-03-30T05:59:31.886Z,6.50
2023-03-30T06:02:00.867Z,7.47
2023-03-30T06:04:28.287Z,7.78
2023-03-30T06:06:55.797Z,9.02
2023-03-30T06:09:24.331Z,7.22
2023-03-30T06:11:53.050Z,6.50
2023-03-30T06:14:20.528Z,8.73
2023-03-30T06:16:48.003Z,7.82
2023-03-30T06:19:15.530Z,8.38
2023-03-30T06:21:43.054Z,8.10
2023-03-30T06:24:10.518Z,7.63
2023-03-30T06:26:37.940Z,7.63
2023-03-30T06:29:06.537Z,7.88
2023-03-30T06:31:34.722Z,8.95
2023-03-30T06:34:02.574Z,7.55
2023-03-30T06:36:45.292Z,8.55
2023-03-30T06:39:15.298Z,7.32
2023-03-30T06:41:42.677Z,9.00
2023-03-30T06:44:10.421Z,10.77
2023-03-30T06:46:38.279Z,9.43
2023-03-30T06:49:07.893Z,8.88
2023-03-30T06:51:35.731Z,10.48
2023-03-30T06:54:03.633Z,8.25
2023-03-30T06:56:31.650Z,7.78
2023-03-30T06:58:59.197Z,6.78
2023-03-30T07:01:26.680Z,8.02
2023-03-30T07:03:54.202Z,7.25
2023-03-30T07:06:22.646Z,10.00
2023-03-30T07:08:49.998Z,8.73
2023-03-30T07:11:17.480Z,7.72
2023-03-30T07:13:45.173Z,8.10
2023-03-30T07:16:13.025Z,8.25
2023-03-30T07:18:40.719Z,8.57
2023-03-30T07:21:08.837Z,7.15
2023-03-30T07:23:36.535Z,8.60
2023-03-30T07:26:04.326Z,8.32
2023-03-30T07:28:32.820Z,7.07
2023-03-30T07:31:08.724Z,8.27
2023-03-30T07:33:37.410Z,7.78
2023-03-30T07:36:05.464Z,8.52
2023-03-30T07:38:33.796Z,10.18
2023-03-30T07:41:01.197Z,10.48
2023-03-30T07:43:28.626Z,9.90
2023-03-30T07:45:56.111Z,8.23
2023-03-30T07:48:23.590Z,8.63
2023-03-30T07:50:51.889Z,7.70
2023-03-30T07:53:19.169Z,7.03
2023-03-30T07:55:46.709Z,7.70
2023-03-30T07:58:14.021Z,8.70
2023-03-30T08:00:41.333Z,8.70
2023-03-30T08:03:08.683Z,7.90
2023-03-30T08:05:36.362Z,6.88
2023-03-30T08:08:04.295Z,8.27
2023-03-30T08:10:31.629Z,7.53
2023-03-30T08:12:58.945Z,8.68
2023-03-30T08:15:26.765Z,7.72
2023-03-30T08:17:54.246Z,7.50
2023-03-30T08:20:21.645Z,7.32
2023-03-30T08:22:49.519Z,8.88
2023-03-30T08:25:16.977Z,8.05
2023-03-30T08:27:44.242Z,7.75
2023-03-30T08:30:13.298Z,7.68
2023-03-30T08:32:40.816Z,6.85
2023-03-30T08:35:08.704Z,8.43
2023-03-30T08:37:36.438Z,8.23
2023-03-30T08:40:06.607Z,8.73
2023-03-30T08:42:40.903Z,6.97
2023-03-30T08:45:11.283Z,6.97
2023-03-30T08:47:42.933Z,5.82
2023-03-30T08:50:32.692Z,8.68
2023-03-30T08:53:00.506Z,7.28
2023-03-30T08:55:42.338Z,7.60
2023-03-30T08:58:37.336Z,8.63
2023-03-30T09:01:28.814Z,7.03
2023-03-30T09:03:59.465Z,6.63
2023-03-30T09:06:45.669Z,8.02
2023-03-30T09:09:16.928Z,8.25
2023-03-30T09:11:46.343Z,7.65
2023-03-30T09:14:23.163Z,7.03
2023-03-30T09:17:07.621Z,6.30
2023-03-30T09:19:46.318Z,8.93
2023-03-30T09:22:15.159Z,6.57
2023-03-30T09:24:42.811Z,7.53
2023-03-30T09:27:22.132Z,7.55
2023-03-30T09:29:51.711Z,7.25
2023-03-30T09:32:33.142Z,8.13
2023-03-30T09:35:11.966Z,7.60
2023-03-30T09:37:39.777Z,7.68
2023-03-30T09:40:44.210Z,7.38
2023-03-30T09:43:46.272Z,6.50
2023-03-30T09:46:15.761Z,7.68
2023-03-30T09:48:47.834Z,6.90
2023-03-30T09:51:31.189Z,6.97
2023-03-30T09:54:04.762Z,6.43
2023-03-30T09:56:45.523Z,7.78
2023-03-30T09:59:36.557Z,6.82
2023-03-30T10:02:18.140Z,7.47
2023-03-30T10:05:06.661Z,8.18
2023-03-30T10:07:41.669Z,7.28
2023-03-30T10:10:20.896Z,7.45
2023-03-30T10:12:51.012Z,6.32
2023-03-30T10:15:21.355Z,7.38
2023-03-30T10:17:51.535Z,9.07
2023-03-30T10:20:36.156Z,8.18
2023-03-30T10:23:15.900Z,6.57
2023-03-30T10:25:43.863Z,5.63
2023-03-30T10:28:21.795Z,7.03
2023-03-30T10:31:03.026Z,5.80
2023-03-30T10:33:37.780Z,8.10
2023-03-30T10:36:07.872Z,7.57
2023-03-30T10:38:36.369Z,6.65
2023-03-30T10:41:11.477Z,6.97
2023-03-30T10:43:42.055Z,7.60
2023-03-30T10:46:20.109Z,7.03
2023-03-30T10:49:19.697Z,7.10
2023-03-30T10:52:01.603Z,6.95
2023-03-30T10:54:44.277Z,5.72
2023-03-30T10:57:16.262Z,7.00
2023-03-30T10:59:49.506Z,6.53
2023-03-30T11:02:41.809Z,7.88
2023-03-30T11:05:18.934Z,6.57
2023-03-30T11:08:27.377Z,6.75
2023-03-30T11:10:58.149Z,6.88
2023-03-30T11:13:31.559Z,8.73
2023-03-30T11:16:20.407Z,6.50
2023-03-30T11:18:53.627Z,6.05
2023-03-30T11:21:27.195Z,6.95
2023-03-30T11:23:57.356Z,4.85
2023-03-30T11:26:32.942Z,6.65
2023-03-30T11:29:16.972Z,5.73
2023-03-30T11:32:08.227Z,5.82
2023-03-30T11:34:50.517Z,6.50
2023-03-30T11:37:35.968Z,7.18
2023-03-30T11:40:27.944Z,7.47
2023-03-30T11:42:55.956Z,7.20
2023-03-30T11:45:43.642Z,8.18
2023-03-30T11:48:27.125Z,6.95
2023-03-30T11:51:05.939Z,7.68
2023-03-30T11:53:52.029Z,8.02
2023-03-30T11:56:46.767Z,8.38
2023-03-30T11:59:29.753Z,7.22
2023-03-30T12:02:06.190Z,7.70
2023-03-30T12:07:46.137Z,6.35
2023-03-30T12:10:23.353Z,5.95
2023-03-30T12:12:53.999Z,5.97
2023-03-30T12:15:27.178Z,6.32
2023-03-30T12:18:00.795Z,5.40
2023-03-30T12:20:49.519Z,4.43
2023-03-30T12:23:32.224Z,5.95
2023-03-30T12:26:10.120Z,4.93
2023-03-30T12:31:18.176Z,5.03
2023-03-30T12:33:48.299Z,6.05
2023-03-30T12:36:49.312Z,5.80
2023-03-30T12:39:26.574Z,5.47
2023-03-30T12:42:05.469Z,5.82
2023-03-30T12:44:43.530Z,5.68
2023-03-30T12:47:22.822Z,5.85
2023-03-30T12:50:18.919Z,5.05
2023-03-30T12:53:18.278Z,5.70
2023-03-30T12:56:00.332Z,4.95
2023-03-30T12:59:08.587Z,4.68
2023-03-30T13:01:47.776Z,6.15
2023-03-30T13:04:28.326Z,6.20
2023-03-30T13:07:23.217Z,6.15
2023-03-30T13:10:00.381Z,4.95
2023-03-30T13:12:27.846Z,5.95
2023-03-30T13:15:04.962Z,5.18
2023-03-30T13:18:04.956Z,5.78
2023-03-30T13:20:47.615Z,5.38
2023-03-30T13:23:14.940Z,5.80
2023-03-30T13:26:03.416Z,6.40
2023-03-30T13:28:55.010Z,5.55
2023-03-30T13:31:40.626Z,7.90
2023-03-30T13:34:28.769Z,6.13
2023-03-30T13:37:07.962Z,7.15
2023-03-30T13:39:55.944Z,5.38
2023-03-30T13:42:45.765Z,6.63
2023-03-30T13:45:37.382Z,5.50
2023-03-30T13:48:29.717Z,4.82
2023-03-30T13:50:59.724Z,4.60
2023-03-30T13:53:33.717Z,5.18
2023-03-30T13:56:01.495Z,4.90
2023-03-30T13:58:33.607Z,5.95
2023-03-30T14:01:05.811Z,5.20
2023-03-30T14:03:36.365Z,5.57
2023-03-30T14:06:17.714Z,5.43
2023-03-30T14:08:47.993Z,4.60
2023-03-30T14:11:34.747Z,5.32
2023-03-30T14:14:04.310Z,6.82
2023-03-30T14:16:35.096Z,4.57
2023-03-30T14:19:12.894Z,5.22
2023-03-30T14:21:44.430Z,5.38
2023-03-30T14:24:17.031Z,5.15
2023-03-30T14:26:47.170Z,5.05
2023-03-30T14:29:30.318Z,4.95
2023-03-30T14:34:33.956Z,4.97
2023-03-30T14:37:06.019Z,5.47
2023-03-30T14:39:39.867Z,6.05
2023-03-30T14:42:31.346Z,6.10
2023-03-30T14:44:58.787Z,5.25
2023-03-30T14:47:27.628Z,6.22
2023-03-30T14:50:02.067Z,5.43
2023-03-30T14:52:41.807Z,5.63
2023-03-30T14:55:23.764Z,5.85
2023-03-30T14:57:51.525Z,6.47
2023-03-30T15:00:22.114Z,6.18
2023-03-30T15:03:01.620Z,6.07
2023-03-30T15:05:33.982Z,6.65
2023-03-30T15:08:03.766Z,4.85
2023-03-30T15:10:45.439Z,5.78
2023-03-30T15:13:33.407Z,4.97
2023-03-30T15:16:02.030Z,5.65
2023-03-30T15:18:31.898Z,5.25
2023-03-30T15:21:00.336Z,5.22
2023-03-30T15:23:36.306Z,5.80
2023-03-30T15:26:06.718Z,5.85
2023-03-30T15:28:56.169Z,7.35
2023-03-30T15:31:24.347Z,4.63
2023-03-30T15:34:01.240Z,5.15
2023-03-30T15:36:34.257Z,5.82
2023-03-30T15:39:01.683Z,4.85
2023-03-30T15:41:50.624Z,5.20
2023-03-30T15:44:19.861Z,6.78
2023-03-30T15:46:49.696Z,6.13
2023-03-30T15:49:20.433Z,7.32
2023-03-30T15:51:52.334Z,5.15
2023-03-30T15:54:41.312Z,6.07
2023-03-30T15:57:13.212Z,6.43
2023-03-30T15:59:45.676Z,6.18
2023-03-30T16:02:21.901Z,5.97
2023-03-30T16:04:49.715Z,5.80
2023-03-30T16:07:22.507Z,7.13
2023-03-30T16:09:49.801Z,6.45
2023-03-30T16:12:25.388Z,6.60
2023-03-30T16:14:53.878Z,5.83
2023-03-30T16:17:21.534Z,5.22
2023-03-30T16:19:49.096Z,6.45
2023-03-30T16:22:16.466Z,5.50
2023-03-30T16:24:43.906Z,6.60
2023-03-30T16:27:12.704Z,6.38
2023-03-30T16:29:40.065Z,5.18
2023-03-30T16:32:07.592Z,5.38
2023-03-30T16:34:37.544Z,5.70
2023-03-30T16:37:04.872Z,5.65
2023-03-30T16:39:32.299Z,6.40
2023-03-30T16:42:00.366Z,5.57
2023-03-30T16:44:27.900Z,6.40
2023-03-30T16:46:55.263Z,6.53
2023-03-30T16:49:25.398Z,5.57
2023-03-30T16:51:55.377Z,7.30
2023-03-30T16:54:32.165Z,6.43
2023-03-30T16:57:01.764Z,8.27
2023-03-30T16:59:30.681Z,6.90
2023-03-30T17:01:59.418Z,5.60
2023-03-30T17:04:26.992Z,5.47
2023-03-30T17:06:54.964Z,5.65
2023-03-30T17:09:22.449Z,6.68
2023-03-30T17:11:50.404Z,5.75
2023-03-30T17:14:18.123Z,5.30
2023-03-30T17:16:45.529Z,5.97
2023-03-30T17:19:14.073Z,5.28
2023-03-30T17:21:43.652Z,6.55
2023-03-30T17:24:12.717Z,7.22
2023-03-30T17:26:41.103Z,6.45
2023-03-30T17:29:10.235Z,6.20
2023-03-30T17:31:39.038Z,5.88
2023-03-30T17:34:07.513Z,5.15
2023-03-30T17:36:35.056Z,5.63
2023-03-30T17:39:05.064Z,5.82
2023-03-30T17:41:34.308Z,7.03
2023-03-30T17:44:01.569Z,6.78
2023-03-30T17:46:29.173Z,8.90
2023-03-30T17:48:57.990Z,6.50
2023-03-30T17:51:25.470Z,6.50
2023-03-30T17:53:53.042Z,7.35
2023-03-30T17:56:20.490Z,7.88
2023-03-30T17:58:49.822Z,7.50
2023-03-30T18:01:17.187Z,7.38
2023-03-30T18:03:45.338Z,7.30
2023-03-30T18:06:13.246Z,7.93
2023-03-30T18:08:41.013Z,9.20
2023-03-30T18:11:08.485Z,10.90
2023-03-30T18:13:37.082Z,8.30
2023-03-30T18:16:04.663Z,7.25
2023-03-30T18:18:32.060Z,7.22
2023-03-30T18:21:05.419Z,7.00
2023-03-30T18:23:37.349Z,8.35
2023-03-30T18:26:12.239Z,7.35
2023-03-30T18:28:45.778Z,8.18
2023-03-30T18:31:13.297Z,7.53
2023-03-30T18:33:40.944Z,8.88
2023-03-30T18:36:13.241Z,7.30
2023-03-30T18:38:41.096Z,8.00
2023-03-30T18:41:11.852Z,7.53
2023-03-30T18:43:39.404Z,8.00
2023-03-30T18:46:16.583Z,11.18
2023-03-30T18:48:44.964Z,7.95
2023-03-30T18:51:12.727Z,8.32
2023-03-30T18:53:40.415Z,7.07
2023-03-30T18:56:11.730Z,7.95
2023-03-30T18:58:42.167Z,7.97
2023-03-30T19:01:12.718Z,7.55
2023-03-30T19:03:41.053Z,6.90
2023-03-30T19:06:26.724Z,7.15
2023-03-30T19:08:54.306Z,9.13
2023-03-30T19:11:24.320Z,7.38
2023-03-30T19:13:52.147Z,7.43
2023-03-30T19:16:21.269Z,9.20
2023-03-30T19:18:49.601Z,7.78
2023-03-30T19:21:18.246Z,8.10
2023-03-30T19:23:48.018Z,7.70
2023-03-30T19:26:18.839Z,7.82
2023-03-30T19:28:46.335Z,8.85
2023-03-30T19:31:16.492Z,7.53
2023-03-30T19:33:44.495Z,8.43
2023-03-30T19:36:12.086Z,8.07
2023-03-30T19:38:44.408Z,10.88
2023-03-30T19:41:14.957Z,6.95
2023-03-30T19:56:57.231Z,9.43
2023-03-30T20:09:10.354Z,9.57
2023-03-30T20:29:55.836Z,8.48
2023-03-30T20:32:23.159Z,8.80
2023-03-30T20:42:10.600Z,10.18
2023-03-30T20:45:14.021Z,9.57
2023-03-30T20:48:34.261Z,8.48
2023-03-30T20:52:22.362Z,9.80
2023-03-30T20:54:49.785Z,9.57
2023-03-30T20:57:17.908Z,10.40
2023-03-30T20:59:48.018Z,8.23
2023-03-30T21:02:16.736Z,9.75
2023-03-30T21:04:44.894Z,9.20
2023-03-30T21:08:00.728Z,7.78
2023-03-30T21:10:43.524Z,8.85
2023-03-30T21:13:11.075Z,8.65
2023-03-30T21:15:38.501Z,9.88
2023-03-30T21:18:06.082Z,9.18
2023-03-30T21:20:33.446Z,8.48
2023-03-30T21:23:01.192Z,9.13
2023-03-30T21:25:29.578Z,9.45
2023-03-30T21:27:57.088Z,8.38
2023-03-30T21:30:24.435Z,8.23
2023-03-30T21:32:51.786Z,9.73
2023-03-30T21:36:33.765Z,9.68
2023-03-30T21:41:49.546Z,8.73
2023-03-30T21:44:16.880Z,6.05
2023-03-30T21:46:44.221Z,6.20
2023-03-30T21:49:12.080Z,6.38
2023-03-30T21:54:38.280Z,4.68
2023-03-30T21:57:05.782Z,5.30
2023-03-30T22:03:06.323Z,5.00
2023-03-30T22:05:58.636Z,4.80
2023-03-30T22:08:27.306Z,4.80
2023-03-30T22:11:00.451Z,4.50
2023-03-30T22:17:11.435Z,4.13
2023-03-30T22:23:33.674Z,3.50
2023-03-30T22:33:59.520Z,3.30
2023-03-30T22:36:38.444Z,3.47
2023-03-30T22:39:09.217Z,3.45
2023-03-30T22:41:39.277Z,3.28
2023-03-30T22:44:06.668Z,3.38
2023-03-30T22:46:34.255Z,3.70
2023-03-30T22:49:03.789Z,3.53
2023-03-30T22:51:32.064Z,3.78
2023-03-30T22:54:00.694Z,4.97
2023-03-30T22:56:30.122Z,4.47
2023-03-30T22:59:02.248Z,3.20
2023-03-30T23:01:32.565Z,4.57
2023-03-30T23:04:01.859Z,4.55
2023-03-30T23:06:29.534Z,5.20
2023-03-30T23:08:57.333Z,4.20
2023-03-30T23:11:26.494Z,5.07
2023-03-30T23:13:54.483Z,3.88
2023-03-30T23:16:23.416Z,4.30
2023-03-30T23:18:51.119Z,3.97
2023-03-30T23:21:18.511Z,4.60
2023-03-30T23:23:47.384Z,4.22
2023-03-30T23:26:14.819Z,4.72
2023-03-30T23:28:42.818Z,4.70
2023-03-30T23:31:12.075Z,4.85
2023-03-30T23:33:41.179Z,4.30
2023-03-30T23:36:10.465Z,4.88
2023-03-30T23:38:38.240Z,6.05
2023-03-30T23:41:06.486Z,4.35
2023-03-30T23:43:33.816Z,5.80
2023-03-30T23:46:01.559Z,6.63
2023-03-30T23:48:29.239Z,6.00
2023-03-30T23:50:57.580Z,5.10
2023-03-30T23:53:26.655Z,4.40
2023-03-30T23:55:54.761Z,5.47
2023-03-30T23:58:22.482Z,5.30
